N124MC KIWI-KBHB
Flight info
| Callsign | N124MC |
|---|---|
| Flight time | 0h 24m |
| Altitude | 3500 |
| Route | VFR |
| Aircraft | PA44/L-VGD/C |
Departure
| Time | 2026-05-05 19:41 |
|---|---|
| Airport | Wiscasset Airport (KIWI) |
Arrival
| Time | 2026-05-05 20:06 |
|---|---|
| Airport | Hancock County-Bar Harbor Airport (KBHB) |
| Time | Latitude | Longitude | Altitude | Speed | Heading |
|---|---|---|---|---|---|
| 2026-05-05 19:37 | 43.96343 | -69.71100 | 63 ft | 0 kts | 142° |
| 2026-05-05 19:40 | 43.96342 | -69.71079 | 63 ft | 8 kts | 65° |
| 2026-05-05 19:40 | 43.96386 | -69.70980 | 62 ft | 14 kts | 56° |
| 2026-05-05 19:40 | 43.96445 | -69.70852 | 59 ft | 9 kts | 106° |
| 2026-05-05 19:41 | 43.96373 | -69.70855 | 60 ft | 29 kts | 232° |
| 2026-05-05 19:41 | 43.96136 | -69.71295 | 138 ft | 74 kts | 225° |
| 2026-05-05 19:41 | 43.95803 | -69.71917 | 515 ft | 84 kts | 227° |
| 2026-05-05 19:41 | 43.95657 | -69.72696 | 1022 ft | 87 kts | 267° |
| 2026-05-05 19:42 | 43.96172 | -69.73422 | 1255 ft | 131 kts | 321° |
| 2026-05-05 19:42 | 43.97002 | -69.73442 | 1936 ft | 120 kts | 2° |
| 2026-05-05 19:42 | 43.97889 | -69.73082 | 2171 ft | 148 kts | 29° |
| 2026-05-05 19:42 | 43.98581 | -69.71979 | 2382 ft | 154 kts | 70° |
| 2026-05-05 19:43 | 43.99017 | -69.70623 | 2634 ft | 155 kts | 73° |
| 2026-05-05 19:43 | 43.99483 | -69.69260 | 2880 ft | 156 kts | 71° |
| 2026-05-05 19:43 | 43.99958 | -69.67900 | 3131 ft | 158 kts | 70° |
| 2026-05-05 19:43 | 44.00455 | -69.66478 | 3262 ft | 170 kts | 69° |
| 2026-05-05 19:44 | 44.00979 | -69.64977 | 3386 ft | 175 kts | 69° |
| 2026-05-05 19:44 | 44.01522 | -69.63423 | 3514 ft | 178 kts | 69° |
| 2026-05-05 19:44 | 44.02074 | -69.61841 | 3507 ft | 185 kts | 68° |
| 2026-05-05 19:44 | 44.02641 | -69.60229 | 3508 ft | 186 kts | 68° |
| 2026-05-05 19:45 | 44.03204 | -69.58609 | 3517 ft | 187 kts | 69° |
| 2026-05-05 19:45 | 44.03774 | -69.56977 | 3503 ft | 187 kts | 68° |
| 2026-05-05 19:45 | 44.04342 | -69.55350 | 3508 ft | 188 kts | 69° |
| 2026-05-05 19:45 | 44.04910 | -69.53715 | 3504 ft | 188 kts | 69° |
| 2026-05-05 19:46 | 44.05477 | -69.52083 | 3504 ft | 188 kts | 69° |
| 2026-05-05 19:46 | 44.06047 | -69.50452 | 3505 ft | 188 kts | 69° |
| 2026-05-05 19:46 | 44.06615 | -69.48823 | 3516 ft | 187 kts | 69° |
| 2026-05-05 19:46 | 44.07180 | -69.47190 | 3505 ft | 187 kts | 69° |
| 2026-05-05 19:47 | 44.07747 | -69.45558 | 3503 ft | 188 kts | 69° |
| 2026-05-05 19:47 | 44.08316 | -69.43925 | 3504 ft | 187 kts | 69° |
| 2026-05-05 19:47 | 44.08882 | -69.42292 | 3514 ft | 187 kts | 69° |
| 2026-05-05 19:47 | 44.09436 | -69.40690 | 3512 ft | 186 kts | 69° |
| 2026-05-05 19:48 | 44.09995 | -69.39075 | 3512 ft | 185 kts | 69° |
| 2026-05-05 19:48 | 44.10568 | -69.37417 | 3512 ft | 189 kts | 69° |
| 2026-05-05 19:48 | 44.11139 | -69.35766 | 3524 ft | 190 kts | 69° |
| 2026-05-05 19:48 | 44.11712 | -69.34111 | 3516 ft | 188 kts | 68° |
| 2026-05-05 19:49 | 44.12271 | -69.32498 | 3515 ft | 187 kts | 69° |
| 2026-05-05 19:49 | 44.12835 | -69.30871 | 3515 ft | 187 kts | 69° |
| 2026-05-05 19:49 | 44.13398 | -69.29242 | 3519 ft | 187 kts | 69° |
| 2026-05-05 19:49 | 44.13957 | -69.27608 | 3516 ft | 187 kts | 69° |
| 2026-05-05 19:50 | 44.14518 | -69.25985 | 3516 ft | 186 kts | 69° |
| 2026-05-05 19:50 | 44.15081 | -69.24361 | 3517 ft | 187 kts | 69° |
| 2026-05-05 19:50 | 44.15642 | -69.22722 | 3517 ft | 187 kts | 69° |
| 2026-05-05 19:50 | 44.16205 | -69.21082 | 3518 ft | 189 kts | 69° |
| 2026-05-05 19:51 | 44.16772 | -69.19438 | 3516 ft | 187 kts | 69° |
| 2026-05-05 19:51 | 44.17336 | -69.17803 | 3522 ft | 188 kts | 69° |
| 2026-05-05 19:51 | 44.17900 | -69.16150 | 3517 ft | 189 kts | 70° |
| 2026-05-05 19:51 | 44.18467 | -69.14496 | 3525 ft | 190 kts | 70° |
| 2026-05-05 19:52 | 44.19039 | -69.12839 | 3520 ft | 189 kts | 69° |
| 2026-05-05 19:52 | 44.19605 | -69.11197 | 3517 ft | 187 kts | 70° |
| 2026-05-05 19:52 | 44.20166 | -69.09558 | 3515 ft | 188 kts | 70° |
| 2026-05-05 19:52 | 44.20726 | -69.07905 | 3517 ft | 190 kts | 70° |
| 2026-05-05 19:53 | 44.21291 | -69.06249 | 3520 ft | 190 kts | 70° |
| 2026-05-05 19:53 | 44.21864 | -69.04593 | 3522 ft | 190 kts | 69° |
| 2026-05-05 19:53 | 44.22433 | -69.02937 | 3516 ft | 189 kts | 69° |
| 2026-05-05 19:53 | 44.22995 | -69.01285 | 3511 ft | 188 kts | 70° |
| 2026-05-05 19:54 | 44.23557 | -68.99634 | 3514 ft | 189 kts | 70° |
| 2026-05-05 19:54 | 44.24120 | -68.97984 | 3511 ft | 188 kts | 70° |
| 2026-05-05 19:54 | 44.24682 | -68.96336 | 3512 ft | 188 kts | 70° |
| 2026-05-05 19:54 | 44.25246 | -68.94685 | 3516 ft | 188 kts | 70° |
| 2026-05-05 19:55 | 44.25805 | -68.93037 | 3508 ft | 188 kts | 70° |
| 2026-05-05 19:55 | 44.26367 | -68.91390 | 3513 ft | 188 kts | 70° |
| 2026-05-05 19:55 | 44.26931 | -68.89734 | 3515 ft | 189 kts | 70° |
| 2026-05-05 19:55 | 44.27488 | -68.88095 | 3507 ft | 190 kts | 70° |
| 2026-05-05 19:56 | 44.28052 | -68.86435 | 3510 ft | 189 kts | 70° |
| 2026-05-05 19:56 | 44.28622 | -68.84756 | 3507 ft | 189 kts | 70° |
| 2026-05-05 19:56 | 44.29176 | -68.83123 | 3503 ft | 189 kts | 70° |
| 2026-05-05 19:56 | 44.29737 | -68.81470 | 3499 ft | 188 kts | 70° |
| 2026-05-05 19:57 | 44.30295 | -68.79825 | 3508 ft | 187 kts | 70° |
| 2026-05-05 19:57 | 44.30670 | -68.78715 | 3510 ft | 187 kts | 71° |
| 2026-05-05 19:57 | 44.31409 | -68.76534 | 3460 ft | 191 kts | 70° |
| 2026-05-05 19:57 | 44.31980 | -68.74840 | 3343 ft | 194 kts | 70° |
| 2026-05-05 19:58 | 44.32561 | -68.73123 | 3220 ft | 196 kts | 70° |
| 2026-05-05 19:58 | 44.33148 | -68.71389 | 3104 ft | 198 kts | 70° |
| 2026-05-05 19:58 | 44.33737 | -68.69647 | 2981 ft | 198 kts | 70° |
| 2026-05-05 19:58 | 44.34312 | -68.67945 | 2866 ft | 196 kts | 71° |
| 2026-05-05 19:59 | 44.34892 | -68.66220 | 2742 ft | 196 kts | 71° |
| 2026-05-05 19:59 | 44.35475 | -68.64492 | 2614 ft | 197 kts | 71° |
| 2026-05-05 19:59 | 44.36062 | -68.62748 | 2498 ft | 199 kts | 71° |
| 2026-05-05 19:59 | 44.36653 | -68.60987 | 2372 ft | 200 kts | 71° |
| 2026-05-05 20:00 | 44.37244 | -68.59233 | 2256 ft | 199 kts | 71° |
| 2026-05-05 20:00 | 44.37839 | -68.57474 | 2123 ft | 200 kts | 72° |
| 2026-05-05 20:00 | 44.38429 | -68.55716 | 1994 ft | 200 kts | 72° |
| 2026-05-05 20:00 | 44.39015 | -68.53960 | 1868 ft | 199 kts | 72° |
| 2026-05-05 20:01 | 44.39601 | -68.52213 | 1749 ft | 198 kts | 72° |
| 2026-05-05 20:01 | 44.40187 | -68.50470 | 1652 ft | 197 kts | 72° |
| 2026-05-05 20:01 | 44.40768 | -68.48765 | 1660 ft | 193 kts | 71° |
| 2026-05-05 20:01 | 44.41353 | -68.47078 | 1659 ft | 194 kts | 72° |
| 2026-05-05 20:02 | 44.41949 | -68.45376 | 1654 ft | 196 kts | 71° |
| 2026-05-05 20:02 | 44.42545 | -68.43665 | 1656 ft | 195 kts | 71° |
| 2026-05-05 20:02 | 44.43137 | -68.41961 | 1653 ft | 194 kts | 71° |
| 2026-05-05 20:02 | 44.43717 | -68.40290 | 1651 ft | 183 kts | 72° |
| 2026-05-05 20:03 | 44.44265 | -68.38759 | 1662 ft | 171 kts | 72° |
| 2026-05-05 20:03 | 44.44770 | -68.37386 | 1655 ft | 146 kts | 73° |
| 2026-05-05 20:03 | 44.45178 | -68.36221 | 1627 ft | 123 kts | 76° |
| 2026-05-05 20:03 | 44.45509 | -68.35145 | 1618 ft | 120 kts | 84° |
| 2026-05-05 20:04 | 44.45820 | -68.34081 | 1440 ft | 119 kts | 70° |
| 2026-05-05 20:04 | 44.46528 | -68.33481 | 1192 ft | 112 kts | 351° |
| 2026-05-05 20:04 | 44.47166 | -68.33842 | 1006 ft | 91 kts | 294° |
| 2026-05-05 20:04 | 44.47308 | -68.34514 | 754 ft | 64 kts | 235° |
| 2026-05-05 20:05 | 44.47015 | -68.34973 | 454 ft | 67 kts | 209° |
| 2026-05-05 20:05 | 44.46630 | -68.35276 | 299 ft | 61 kts | 206° |
| 2026-05-05 20:05 | 44.46258 | -68.35520 | 241 ft | 58 kts | 206° |
| 2026-05-05 20:05 | 44.45892 | -68.35763 | 153 ft | 60 kts | 205° |
| 2026-05-05 20:06 | 44.45518 | -68.36004 | 79 ft | 51 kts | 200° |
| 2026-05-05 20:06 | 44.45275 | -68.36156 | 85 ft | 30 kts | 206° |
| 2026-05-05 20:06 | 44.45108 | -68.36268 | 87 ft | 28 kts | 205° |
| 2026-05-05 20:06 | 44.44919 | -68.36387 | 82 ft | 36 kts | 205° |
| 2026-05-05 20:07 | 44.44702 | -68.36500 | 77 ft | 21 kts | 168° |
| 2026-05-05 20:07 | 44.44679 | -68.36340 | 74 ft | 23 kts | 99° |
| 2026-05-05 20:07 | 44.44586 | -68.36225 | 72 ft | 0 kts | 165° |